Terminal Aerodrome Forecast
Issued by NWS

Current Version | Previous Version | Text Only | Print | Product List | Glossary Off
Versions: 1 2 3 4 5 6 7 8 9 10 11 12 13 14 15 16 17 18

000
FTUS41 KILN 190211 AAA
TAFLCK
TAF AMD
KLCK 190211Z 1902/1924 31017G32KT 5SM SHRA VCTS OVC015CB
      TEMPO 1902/1904 28025G35KT 2SM -SHRA OVC008
     FM190400 30019G34KT P6SM VCSH OVC015
     FM190900 30015G28KT P6SM OVC018
     FM191500 30014G24KT P6SM OVC026
     FM192300 29012KT P6SM BKN035=

USA.gov is the U.S. government's official web portal to all federal, state and local government web resources and services.